Aeroporto :







RITROVATECI SU...

 
LOGIN :

Iscrizione | Disclaimer

   EN    FR    IT 

 









Sommario :    VFR   VFR Marginale   IFR   IFR Intensivo   IFR Molto Intensivo
Visibilità : 
Base nubi : 
>= 8 km
>= 3000ft
5 / 8 km
1000 / 3000 ft
1500m / 5 km
500 / 1000 ft
800 / 1500m
200 / 500 ft
< 800m
< 200 ft
Simboli :   Temporali  Nebbia  Neve Forte  Precipitazioni Forti  Vento > 20 kt






- Altitudine del aeroporto : 1005 ft
- Codice IATA : YAH


CYAH - La Grande-4

ULTIMO METAR :
  • 220700Z AUTO 17004KT 140V200 2SM -SN OVC019 M01/M02 A2940 RMK VIS VRB 1 1/2-2 1/2 SLP976

METARs OBSOLETI :
  • 220614Z AUTO 18008KT 2SM -SN OVC017 M01/M02 A2941 RMK VIS VRB 1 1/2-3 SLP980
  • 220534Z AUTO 18008KT 1 3/4SM -SN OVC021 M01/M02 A2943 RMK VIS VRB 1 1/4-3 SLP986
  • 220513Z AUTO 19007KT 2SM -SN OVC021 M01/M02 A2944 RMK SLP991
  • 220500Z AUTO 19007KT 1 1/4SM -SN OVC019 M01/M02 A2945 RMK SLP993
  • 220443Z AUTO 19008KT 1 3/4SM -SN OVC021 M00/M02 A2946 RMK SLP995

Previsioni scadute.



MetMap, La meteo Aeronautica in un colpo d'occhio ! - Copyright ORBIFLY Dicembre 2007 - Disclaimer

ORBIFLY MET'MAP TEAM :

Programmazione e sviluppo : Alexandra Zaïnal
Concezione e sviluppo : Baudouin d'Aumeries
Co-Programmazione e sviluppo : Marc-Olivier Méhu
Supporto tecnico e logistico : Manuel Goepfert
Aiuto per la traduzione : Arnaldo La Scala

Contatto : metmap@orbifly.com




FONTI E CREDITI :

   NOAA